Murau, Austria
Current Conditions -  °F | °C
As of 9:50 AM on Thursday 29 Jan 2015 (Local Time) from LOXZ Reporting Station
Rain Showers Rain Showers  
Wind Chill: 22°   Ceiling: 6000
Heat Index: 28°   Visibility: 13mi
Dew Point: 23°   Wind: 6mph
Humidity: 80%   Direction: 210°SSW
Pressure: 29.5"   Gusts: NA
Location:  47.11°N, 14.17°E
Report Text: LOXZ 290750Z 21005KT 20KM VCSH FEW050SC BKN060SC OVC090ASM02/M05 Q0999 NOSIG RMK VCSH FROM N TO S/OVC
Loading
Personal Weather Stations






























Interactive Weather Map New forecast layout! Learn more

10-Day Weather Forecast

Advertisements
Track Severe Weather on mobile